Time;durP1;ratioP1;P1;durP2;ratioP2;P2;SDS_P1;SDS_P2;PMS_P1;PMS_P2;Temp;Humidity;BMP_temperature;BMP_pressure;BME280_temperature;BME280_humidity;BME280_pressure;Samples;Min_cycle;Max_cycle;Signal;HPM_P1;HPM_P2
2021/10/14 00:00:36;;;;;;;6.20;3.83;;;10.10;99.90;;;;;;5050223;28;20392;-65
2021/10/14 00:03:05;;;;;;;6.35;4.50;;;10.20;99.90;;;;;;5051281;28;20107;-65
2021/10/14 00:05:30;;;;;;;5.95;4.07;;;10.20;99.90;;;;;;5051418;28;20025;-65
2021/10/14 00:07:56;;;;;;;8.98;3.75;;;10.20;99.90;;;;;;5051724;28;20428;-65
2021/10/14 00:10:21;;;;;;;7.65;3.42;;;10.30;99.90;;;;;;5051217;28;20309;-65
2021/10/14 00:12:47;;;;;;;4.97;3.33;;;10.40;99.90;;;;;;5051697;28;20029;-64
2021/10/14 00:15:13;;;;;;;9.02;3.47;;;10.50;99.90;;;;;;5051389;28;20029;-65
2021/10/14 00:17:38;;;;;;;6.22;3.55;;;10.50;99.90;;;;;;5051203;28;20033;-65
2021/10/14 00:20:05;;;;;;;7.75;3.40;;;10.50;99.90;;;;;;5050925;28;20032;-65
2021/10/14 00:22:31;;;;;;;6.43;4.32;;;10.60;99.90;;;;;;5050161;28;20189;-65
2021/10/14 00:24:57;;;;;;;7.90;4.03;;;10.50;99.90;;;;;;5051734;28;20080;-66
2021/10/14 00:27:22;;;;;;;8.32;3.38;;;10.50;99.90;;;;;;5049663;28;20041;-65
2021/10/14 00:29:48;;;;;;;5.40;4.10;;;10.40;99.90;;;;;;5051742;28;20025;-65
2021/10/14 00:32:14;;;;;;;9.25;4.10;;;10.40;99.90;;;;;;5049573;28;20110;-64
2021/10/14 00:34:39;;;;;;;6.18;3.95;;;10.30;99.90;;;;;;5050046;28;20480;-65
2021/10/14 00:37:05;;;;;;;5.18;3.90;;;10.20;99.90;;;;;;5049368;28;20029;-66
2021/10/14 00:39:31;;;;;;;9.60;4.57;;;10.20;99.90;;;;;;5051689;28;20029;-64
2021/10/14 00:41:56;;;;;;;6.45;3.45;;;10.20;99.90;;;;;;5051338;28;20540;-66
2021/10/14 00:44:22;;;;;;;6.43;3.83;;;10.10;99.90;;;;;;5050563;28;20379;-65
2021/10/14 00:46:55;;;;;;;6.10;3.42;;;10.20;99.90;;;;;;5049489;28;20094;-65
2021/10/14 00:49:22;;;;;;;9.75;4.45;;;10.10;99.90;;;;;;5050088;28;20115;-64
2021/10/14 00:51:48;;;;;;;7.30;4.00;;;10.00;99.90;;;;;;5050430;28;20138;-64
2021/10/14 00:54:17;;;;;;;5.88;4.05;;;9.90;99.90;;;;;;5050038;28;20104;-65
2021/10/14 00:56:44;;;;;;;5.93;3.78;;;9.80;99.90;;;;;;5049120;28;20467;-64
2021/10/14 00:59:10;;;;;;;8.32;4.30;;;9.90;99.90;;;;;;5048666;28;20395;-65
2021/10/14 01:01:36;;;;;;;6.47;4.05;;;9.70;99.90;;;;;;5050368;28;20501;-65
2021/10/14 01:04:05;;;;;;;7.05;4.57;;;9.70;99.90;;;;;;5050608;28;20025;-65
2021/10/14 01:06:30;;;;;;;6.45;4.07;;;9.60;99.90;;;;;;5050425;28;20075;-64
2021/10/14 01:08:57;;;;;;;5.88;4.07;;;9.60;99.90;;;;;;5049207;28;20064;-65
2021/10/14 01:11:23;;;;;;;7.85;4.18;;;9.70;99.90;;;;;;5049973;28;20032;-65
2021/10/14 01:13:49;;;;;;;15.23;5.93;;;9.60;99.90;;;;;;5049540;28;20025;-65
2021/10/14 01:16:14;;;;;;;6.95;4.32;;;9.60;99.90;;;;;;5049896;28;20352;-65
2021/10/14 01:18:40;;;;;;;6.07;4.45;;;9.60;99.90;;;;;;5050047;28;20104;-65
2021/10/14 01:21:06;;;;;;;9.80;5.22;;;9.60;99.90;;;;;;5049925;28;20048;-71
2021/10/14 01:23:32;;;;;;;8.40;4.70;;;9.50;99.90;;;;;;5050251;28;20032;-65
2021/10/14 01:25:58;;;;;;;10.98;4.70;;;9.60;99.90;;;;;;5048319;28;20048;-64
2021/10/14 01:28:23;;;;;;;9.80;4.63;;;9.60;99.90;;;;;;5047996;28;20037;-64
2021/10/14 01:30:49;;;;;;;9.57;4.55;;;9.70;99.90;;;;;;5050091;28;20121;-64
2021/10/14 01:33:16;;;;;;;8.52;5.43;;;9.70;99.90;;;;;;5049232;28;20029;-64
2021/10/14 01:35:43;;;;;;;12.45;5.22;;;9.70;99.90;;;;;;5050220;28;20028;-64
2021/10/14 01:38:08;;;;;;;8.80;4.88;;;9.70;99.90;;;;;;5049317;28;20021;-65
2021/10/14 01:40:34;;;;;;;12.02;6.03;;;9.50;99.90;;;;;;5049963;28;20427;-64
2021/10/14 01:43:00;;;;;;;7.25;4.85;;;9.30;99.90;;;;;;5049864;28;20455;-64
2021/10/14 01:45:25;;;;;;;12.85;8.05;;;9.40;99.90;;;;;;5049576;28;20067;-64
2021/10/14 01:47:51;;;;;;;9.05;6.03;;;9.40;99.90;;;;;;5048853;28;20033;-65
2021/10/14 01:50:17;;;;;;;10.18;6.03;;;9.50;99.90;;;;;;5048167;28;20060;-64
2021/10/14 01:52:42;;;;;;;9.57;5.40;;;9.50;99.90;;;;;;5050550;28;20029;-64
2021/10/14 01:55:08;;;;;;;8.98;4.95;;;9.50;99.90;;;;;;5049430;28;20411;-70
2021/10/14 01:57:34;;;;;;;8.70;4.28;;;9.50;99.90;;;;;;5050287;28;20037;-65
2021/10/14 02:00:00;;;;;;;7.10;4.45;;;9.50;99.90;;;;;;5050123;28;20374;-64
2021/10/14 02:02:25;;;;;;;8.38;4.82;;;9.50;99.90;;;;;;5049152;28;20029;-64
2021/10/14 02:04:51;;;;;;;8.73;5.30;;;9.50;99.90;;;;;;5050155;28;20063;-64
2021/10/14 02:07:16;;;;;;;9.20;5.70;;;9.60;99.90;;;;;;5049318;28;20061;-64
2021/10/14 02:09:42;;;;;;;7.50;4.45;;;9.50;99.90;;;;;;5049787;28;20021;-64
2021/10/14 02:12:08;;;;;;;5.97;4.50;;;9.50;99.90;;;;;;5048658;28;20029;-64
2021/10/14 02:14:34;;;;;;;8.98;4.88;;;9.50;99.90;;;;;;5049786;28;20021;-64
2021/10/14 02:17:00;;;;;;;5.63;4.95;;;9.40;99.90;;;;;;5050364;28;20453;-64
2021/10/14 02:19:25;;;;;;;8.30;5.22;;;9.40;99.90;;;;;;5047963;28;20494;-64
2021/10/14 02:21:51;;;;;;;8.02;5.57;;;9.40;99.90;;;;;;5050274;28;20112;-64
2021/10/14 02:24:17;;;;;;;6.85;4.47;;;9.40;99.90;;;;;;5048373;28;20383;-64
2021/10/14 02:26:43;;;;;;;5.70;4.70;;;9.50;99.90;;;;;;5053461;28;20098;-64
2021/10/14 02:29:12;;;;;;;10.35;5.28;;;9.40;99.90;;;;;;5052381;28;20155;-64
2021/10/14 02:31:39;;;;;;;8.88;6.20;;;9.40;99.90;;;;;;5053621;28;20025;-64
2021/10/14 02:34:06;;;;;;;8.52;5.18;;;9.30;99.90;;;;;;5053695;28;20033;-64
2021/10/14 02:36:32;;;;;;;6.53;4.90;;;9.40;99.90;;;;;;5052840;28;20033;-64
2021/10/14 02:38:57;;;;;;;6.63;4.63;;;9.50;99.90;;;;;;5053472;28;20386;-64
2021/10/14 02:41:25;;;;;;;8.20;4.90;;;9.50;99.90;;;;;;5051535;28;20025;-65
2021/10/14 02:43:50;;;;;;;7.75;5.60;;;9.40;99.90;;;;;;5053692;28;20033;-63
2021/10/14 02:46:16;;;;;;;8.40;6.13;;;9.40;99.90;;;;;;5052985;28;20056;-65
2021/10/14 02:48:42;;;;;;;10.40;8.27;;;9.40;99.90;;;;;;5053605;28;20029;-64
2021/10/14 02:51:07;;;;;;;19.48;13.07;;;9.50;99.90;;;;;;5053427;28;20021;-64
2021/10/14 02:53:33;;;;;;;19.77;10.20;;;9.40;99.90;;;;;;5052454;28;20029;-63
2021/10/14 02:55:58;;;;;;;14.05;8.82;;;9.40;99.90;;;;;;5053342;28;20368;-64
2021/10/14 02:58:24;;;;;;;14.30;6.10;;;9.40;99.90;;;;;;5052998;28;20103;-64
2021/10/14 03:00:50;;;;;;;8.52;6.05;;;9.30;99.90;;;;;;5052880;28;20504;-64
2021/10/14 03:03:15;;;;;;;10.90;5.60;;;9.30;99.90;;;;;;5052581;28;20032;-64
2021/10/14 03:05:41;;;;;;;11.35;6.32;;;9.30;99.90;;;;;;5053396;28;20446;-64
2021/10/14 03:08:06;;;;;;;10.15;5.22;;;9.40;99.90;;;;;;5053162;28;20029;-64
2021/10/14 03:10:32;;;;;;;9.02;5.30;;;9.40;99.90;;;;;;5052133;28;20036;-63
2021/10/14 03:12:58;;;;;;;8.90;4.88;;;9.60;99.90;;;;;;5051557;28;20108;-64
2021/10/14 03:15:23;;;;;;;8.70;4.50;;;9.70;99.90;;;;;;5052246;28;20040;-64
2021/10/14 03:17:49;;;;;;;11.27;5.00;;;9.70;99.90;;;;;;5051645;28;20029;-65
2021/10/14 03:20:15;;;;;;;7.35;5.25;;;9.70;99.90;;;;;;5051052;28;20377;-64
2021/10/14 03:22:40;;;;;;;11.32;5.40;;;9.80;99.90;;;;;;5051488;28;20474;-64
2021/10/14 03:25:07;;;;;;;8.75;5.10;;;9.70;99.90;;;;;;5052798;28;20093;-63
2021/10/14 03:27:33;;;;;;;8.32;5.05;;;9.80;99.90;;;;;;5052181;28;20443;-63
2021/10/14 03:29:58;;;;;;;8.65;5.72;;;9.80;99.90;;;;;;5052512;28;20099;-63
2021/10/14 03:32:24;;;;;;;10.20;6.18;;;9.70;99.90;;;;;;5050437;28;20316;-63
2021/10/14 03:34:49;;;;;;;14.57;5.50;;;9.70;99.90;;;;;;5052282;28;20029;-63
2021/10/14 03:37:16;;;;;;;11.48;5.28;;;9.70;99.90;;;;;;5050252;28;20060;-63
2021/10/14 03:39:41;;;;;;;8.23;5.47;;;9.80;99.90;;;;;;5051361;28;20025;-63
2021/10/14 03:42:07;;;;;;;12.55;6.95;;;9.70;99.90;;;;;;5052204;28;20354;-63
2021/10/14 03:44:33;;;;;;;14.73;6.93;;;9.70;99.90;;;;;;5050968;28;20098;-64
2021/10/14 03:46:58;;;;;;;8.00;5.82;;;9.60;99.90;;;;;;5052561;28;20033;-64
2021/10/14 03:49:24;;;;;;;9.75;6.20;;;9.70;99.90;;;;;;5050081;28;20463;-64
2021/10/14 03:51:50;;;;;;;9.00;5.50;;;9.60;99.90;;;;;;5050912;28;20025;-64
2021/10/14 03:54:15;;;;;;;8.93;6.20;;;9.60;99.90;;;;;;5050113;28;20025;-66
2021/10/14 03:56:41;;;;;;;10.18;5.90;;;9.60;99.90;;;;;;5050668;28;20036;-63
2021/10/14 03:59:07;;;;;;;9.85;6.55;;;9.60;99.90;;;;;;5052167;28;20025;-63
2021/10/14 04:01:32;;;;;;;13.35;6.90;;;9.60;99.90;;;;;;5050292;28;20029;-63
2021/10/14 04:03:58;;;;;;;12.07;6.93;;;9.50;99.90;;;;;;5050676;28;20515;-63
2021/10/14 04:06:23;;;;;;;7.72;5.75;;;9.60;99.90;;;;;;5051511;28;20056;-64
2021/10/14 04:08:49;;;;;;;8.73;5.85;;;9.50;99.90;;;;;;5052019;28;20025;-64
2021/10/14 04:11:15;;;;;;;10.35;7.22;;;9.50;99.90;;;;;;5051593;28;20122;-63
2021/10/14 04:13:42;;;;;;;13.68;7.65;;;9.40;99.90;;;;;;5051492;28;20493;-63
2021/10/14 04:16:08;;;;;;;10.88;6.15;;;9.30;99.90;;;;;;5050162;28;20029;-64
2021/10/14 04:18:36;;;;;;;15.23;7.30;;;9.40;99.90;;;;;;5049773;28;20343;-63
2021/10/14 04:21:02;;;;;;;10.68;6.50;;;9.40;99.90;;;;;;5051956;28;20021;-64
2021/10/14 04:23:28;;;;;;;10.73;6.82;;;9.50;99.90;;;;;;5049647;28;20024;-64
2021/10/14 04:25:53;;;;;;;12.50;6.95;;;9.50;99.90;;;;;;5051305;28;20538;-65
2021/10/14 04:28:19;;;;;;;8.43;5.93;;;9.40;99.90;;;;;;5049676;28;20398;-64
2021/10/14 04:30:46;;;;;;;10.00;6.22;;;9.40;99.90;;;;;;5051140;28;20025;-64
2021/10/14 04:33:12;;;;;;;12.63;6.85;;;9.30;99.90;;;;;;5051408;28;20387;-64
2021/10/14 04:35:38;;;;;;;11.38;6.82;;;9.20;99.90;;;;;;5049366;28;20139;-64
2021/10/14 04:38:03;;;;;;;14.38;6.82;;;9.20;99.90;;;;;;5050187;28;20116;-63
2021/10/14 04:40:29;;;;;;;10.75;6.78;;;9.20;99.90;;;;;;5049221;28;20451;-63
2021/10/14 04:42:55;;;;;;;11.13;6.18;;;9.40;99.90;;;;;;5051297;28;20024;-65
2021/10/14 04:45:21;;;;;;;7.90;6.45;;;9.30;99.90;;;;;;5049489;28;20029;-63
2021/10/14 04:47:46;;;;;;;10.05;7.13;;;9.40;99.90;;;;;;5049027;28;20415;-64
2021/10/14 04:50:12;;;;;;;13.80;6.18;;;9.30;99.90;;;;;;5051338;28;20024;-64
2021/10/14 04:52:38;;;;;;;11.10;5.90;;;9.40;99.90;;;;;;5050400;28;20357;-64
2021/10/14 04:55:05;;;;;;;12.75;7.32;;;9.30;99.90;;;;;;5051012;28;20032;-64
2021/10/14 04:57:31;;;;;;;9.32;5.97;;;9.50;99.90;;;;;;5050682;28;20033;-64
2021/10/14 04:59:56;;;;;;;9.35;5.85;;;9.50;99.90;;;;;;5051118;28;20029;-63
2021/10/14 05:02:22;;;;;;;8.63;5.75;;;9.50;99.90;;;;;;5048853;28;20161;-65
2021/10/14 05:04:47;;;;;;;11.50;6.18;;;9.50;99.90;;;;;;5049356;28;20029;-65
2021/10/14 05:07:13;;;;;;;8.23;6.15;;;9.50;99.90;;;;;;5050752;28;20029;-65
2021/10/14 05:09:39;;;;;;;9.93;5.47;;;9.60;99.90;;;;;;5050117;28;20265;-63
2021/10/14 05:12:04;;;;;;;10.48;6.43;;;9.60;99.90;;;;;;5049187;28;20021;-63
2021/10/14 05:14:30;;;;;;;8.88;6.07;;;9.70;99.90;;;;;;5048969;28;20028;-64
2021/10/14 05:16:56;;;;;;;9.80;5.25;;;9.80;99.90;;;;;;5049536;28;20036;-64
2021/10/14 05:19:21;;;;;;;9.32;5.95;;;9.70;99.90;;;;;;5048718;28;20067;-65
2021/10/14 05:21:47;;;;;;;12.30;6.00;;;9.70;99.90;;;;;;5050468;28;20032;-64
2021/10/14 05:24:13;;;;;;;8.43;5.35;;;9.70;99.90;;;;;;5050383;28;20021;-64
2021/10/14 05:26:38;;;;;;;8.43;5.22;;;9.70;99.90;;;;;;5050108;28;20510;-64
2021/10/14 05:29:04;;;;;;;8.50;5.93;;;9.70;99.90;;;;;;5050417;28;20025;-64
2021/10/14 05:31:29;;;;;;;8.13;5.15;;;9.70;99.90;;;;;;5049913;28;20402;-65
2021/10/14 05:33:56;;;;;;;10.63;5.60;;;9.80;99.90;;;;;;5050480;28;20446;-64
2021/10/14 05:36:22;;;;;;;9.50;5.82;;;9.80;99.90;;;;;;5049946;28;20134;-67
2021/10/14 05:38:47;;;;;;;10.18;4.72;;;9.90;99.90;;;;;;5050234;28;20032;-64
2021/10/14 05:41:13;;;;;;;7.07;5.45;;;9.90;99.90;;;;;;5050146;28;20021;-64
2021/10/14 05:43:39;;;;;;;13.05;5.95;;;9.80;99.90;;;;;;5049504;28;20048;-64
2021/10/14 05:46:05;;;;;;;8.70;5.38;;;9.80;99.90;;;;;;5050439;28;20131;-64
2021/10/14 05:48:31;;;;;;;9.70;5.47;;;9.90;99.90;;;;;;5049866;28;20033;-64
2021/10/14 05:50:56;;;;;;;10.82;5.28;;;9.90;99.90;;;;;;5050299;28;20029;-64
2021/10/14 05:53:22;;;;;;;15.18;7.18;;;10.00;99.90;;;;;;5049530;28;20351;-69
2021/10/14 05:55:50;;;;;;;10.18;6.22;;;9.90;99.90;;;;;;5050111;28;20040;-63
2021/10/14 05:58:16;;;;;;;9.43;6.10;;;9.70;99.90;;;;;;5050395;28;20033;-66
2021/10/14 06:00:42;;;;;;;10.93;6.68;;;9.70;99.90;;;;;;5054048;28;20234;-65
2021/10/14 06:03:07;;;;;;;10.90;6.47;;;9.80;99.90;;;;;;5052875;28;20510;-64
2021/10/14 06:05:33;;;;;;;9.80;6.68;;;9.50;99.90;;;;;;5052114;28;20051;-64
2021/10/14 06:07:59;;;;;;;7.80;6.03;;;9.50;99.90;;;;;;5052333;28;20041;-65
2021/10/14 06:10:25;;;;;;;10.40;6.40;;;9.50;99.90;;;;;;5051878;28;20465;-64
2021/10/14 06:12:51;;;;;;;9.75;6.80;;;9.50;99.90;;;;;;5052805;28;20029;-64
2021/10/14 06:15:17;;;;;;;13.18;5.93;;;9.60;99.90;;;;;;5054179;28;20426;-64
2021/10/14 06:17:43;;;;;;;9.30;5.95;;;9.50;99.90;;;;;;5052019;28;20116;-64
2021/10/14 06:20:10;;;;;;;9.63;6.60;;;9.40;99.90;;;;;;5052353;28;20394;-64
2021/10/14 06:22:35;;;;;;;12.10;6.18;;;9.50;99.90;;;;;;5053216;28;20036;-65
2021/10/14 06:25:01;;;;;;;16.70;7.07;;;9.60;99.90;;;;;;5051854;28;20040;-64
2021/10/14 06:27:27;;;;;;;9.90;6.43;;;9.60;99.90;;;;;;5052841;28;20493;-65
2021/10/14 06:29:54;;;;;;;10.75;6.95;;;9.70;99.90;;;;;;5053726;28;20162;-64
2021/10/14 06:32:20;;;;;;;13.10;6.70;;;9.60;99.90;;;;;;5052614;28;20112;-64
2021/10/14 06:34:46;;;;;;;14.95;7.78;;;9.60;99.90;;;;;;5053243;28;20534;-65
2021/10/14 06:37:11;;;;;;;9.93;6.20;;;9.30;99.90;;;;;;5052280;28;20486;-64
2021/10/14 06:39:37;;;;;;;15.95;7.35;;;9.40;99.90;;;;;;5051577;28;20382;-64
2021/10/14 06:42:03;;;;;;;11.38;6.45;;;9.30;99.90;;;;;;5053499;28;20427;-64
2021/10/14 06:44:29;;;;;;;9.00;6.45;;;9.40;99.90;;;;;;5051668;28;20108;-64
2021/10/14 06:46:54;;;;;;;9.35;6.53;;;9.40;99.90;;;;;;5053052;28;20130;-65
2021/10/14 06:49:20;;;;;;;13.63;6.32;;;9.40;99.90;;;;;;5052036;28;20035;-65
2021/10/14 06:51:46;;;;;;;15.95;7.70;;;9.40;99.90;;;;;;5053002;28;20037;-65
2021/10/14 06:54:12;;;;;;;11.13;6.53;;;9.60;99.90;;;;;;5051775;28;20394;-64
2021/10/14 06:56:38;;;;;;;10.18;6.97;;;9.70;99.90;;;;;;5052651;28;20055;-64
2021/10/14 06:59:04;;;;;;;11.65;6.00;;;9.60;99.90;;;;;;5051931;28;20033;-64
2021/10/14 07:01:29;;;;;;;11.48;5.90;;;9.70;99.90;;;;;;5051065;28;20516;-65
2021/10/14 07:03:55;;;;;;;10.95;7.35;;;9.80;99.90;;;;;;5053079;28;20394;-63
2021/10/14 07:06:21;;;;;;;10.27;6.45;;;9.80;99.90;;;;;;5051579;28;20393;-64
2021/10/14 07:08:46;;;;;;;13.35;7.30;;;9.80;99.90;;;;;;5051147;28;20039;-64
2021/10/14 07:11:12;;;;;;;12.43;7.22;;;9.80;99.90;;;;;;5052247;28;20029;-64
2021/10/14 07:13:39;;;;;;;11.85;7.20;;;9.80;99.90;;;;;;5052029;28;20029;-64
2021/10/14 07:16:05;;;;;;;7.90;6.22;;;9.60;99.90;;;;;;5052897;28;20029;-64
2021/10/14 07:18:30;;;;;;;12.32;6.40;;;9.60;99.90;;;;;;5050543;28;20025;-65
2021/10/14 07:20:56;;;;;;;12.35;7.28;;;9.70;99.90;;;;;;5051535;28;20079;-64
2021/10/14 07:23:22;;;;;;;10.13;6.75;;;9.60;99.90;;;;;;5052414;28;20029;-64
2021/10/14 07:25:47;;;;;;;9.38;6.50;;;9.60;99.90;;;;;;5052221;28;20496;-64
2021/10/14 07:28:13;;;;;;;13.65;7.70;;;9.70;99.90;;;;;;5051574;28;20033;-63
2021/10/14 07:30:40;;;;;;;13.15;7.10;;;9.60;99.90;;;;;;5050994;28;20025;-64
2021/10/14 07:33:06;;;;;;;13.35;6.93;;;9.50;99.90;;;;;;5052898;28;20029;-64
2021/10/14 07:35:37;;;;;;;11.98;7.28;;;9.60;99.90;;;;;;5051704;28;20028;-64
2021/10/14 07:38:03;;;;;;;13.05;6.93;;;9.60;99.90;;;;;;5053000;28;20390;-65
2021/10/14 07:40:32;;;;;;;10.45;6.20;;;9.70;99.90;;;;;;5050520;28;20083;-65
2021/10/14 07:42:57;;;;;;;11.38;6.60;;;9.70;99.90;;;;;;5052486;28;20033;-64
2021/10/14 07:45:23;;;;;;;9.40;5.95;;;9.80;99.90;;;;;;5052241;28;20364;-64
2021/10/14 07:47:49;;;;;;;11.20;6.07;;;9.80;99.90;;;;;;5051365;28;20029;-65
2021/10/14 07:50:15;;;;;;;14.27;7.22;;;9.80;99.90;;;;;;5057290;28;20415;-63
2021/10/14 07:52:44;;;;;;;18.15;7.18;;;9.80;99.90;;;;;;5056786;28;20103;-64
2021/10/14 07:55:10;;;;;;;12.68;6.85;;;9.80;99.90;;;;;;5053594;28;20024;-65
2021/10/14 07:57:36;;;;;;;12.77;7.18;;;9.70;99.90;;;;;;5060855;28;20043;-65
2021/10/14 08:00:06;;;;;;;10.30;7.10;;;9.60;99.90;;;;;;5049560;28;20025;-64
2021/10/14 08:02:31;;;;;;;14.55;6.60;;;9.70;99.90;;;;;;5052669;28;20025;-63
2021/10/14 08:04:57;;;;;;;11.23;6.95;;;9.70;99.90;;;;;;5054164;28;20557;-66
2021/10/14 08:07:23;;;;;;;12.15;7.30;;;9.70;99.90;;;;;;5052621;28;20037;-66
2021/10/14 08:09:49;;;;;;;12.88;6.25;;;9.70;99.90;;;;;;5056826;28;20493;-65
2021/10/14 08:12:14;;;;;;;12.20;7.38;;;9.70;99.90;;;;;;5045860;28;20439;-64
2021/10/14 08:14:40;;;;;;;11.32;6.95;;;9.70;99.90;;;;;;5047584;28;20029;-64
2021/10/14 08:17:06;;;;;;;16.45;7.55;;;9.60;99.90;;;;;;5047460;28;20044;-65
2021/10/14 08:19:31;;;;;;;13.07;7.25;;;9.80;99.90;;;;;;5035477;28;20142;-64
2021/10/14 08:21:57;;;;;;;8.02;6.00;;;9.80;99.90;;;;;;5045073;28;20040;-64
2021/10/14 08:24:24;;;;;;;11.60;5.97;;;9.90;99.90;;;;;;5051255;28;20369;-64
2021/10/14 08:26:50;;;;;;;28.58;6.03;;;10.00;99.90;;;;;;5054029;28;20044;-62
2021/10/14 08:29:16;;;;;;;11.68;6.15;;;10.70;99.90;;;;;;5067914;28;20035;-66
2021/10/14 08:31:43;;;;;;;11.43;6.68;;;11.00;99.90;;;;;;5059109;28;20090;-64
2021/10/14 08:34:08;;;;;;;8.45;6.13;;;10.70;99.90;;;;;;5067199;28;20409;-64
2021/10/14 08:36:34;;;;;;;10.38;6.78;;;10.60;99.90;;;;;;5053782;28;20029;-64
2021/10/14 08:39:00;;;;;;;8.98;6.22;;;10.60;99.90;;;;;;5050997;28;20036;-64
2021/10/14 08:41:26;;;;;;;12.05;6.97;;;10.50;99.90;;;;;;5049579;28;20504;-64
2021/10/14 08:43:55;;;;;;;14.18;7.60;;;10.40;99.90;;;;;;5054010;28;20128;-65
2021/10/14 08:46:22;;;;;;;8.57;6.00;;;10.50;99.90;;;;;;5038205;28;20032;-65
2021/10/14 08:48:48;;;;;;;11.23;5.72;;;10.50;99.90;;;;;;5065734;28;20033;-65
2021/10/14 08:51:14;;;;;;;13.57;6.63;;;10.50;99.90;;;;;;5070725;28;20028;-65
2021/10/14 08:53:40;;;;;;;10.68;5.60;;;10.50;99.90;;;;;;5054190;28;20044;-65
2021/10/14 08:56:06;;;;;;;14.00;6.97;;;10.50;99.90;;;;;;5066236;28;20123;-65
2021/10/14 08:58:31;;;;;;;15.02;6.53;;;10.50;99.90;;;;;;5070020;28;20033;-65
2021/10/14 09:01:14;;;;;;;8.63;5.40;;;10.60;99.90;;;;;;5069170;28;20107;-65
2021/10/14 09:03:49;;;;;;;12.70;6.22;;;10.60;99.90;;;;;;5068536;28;20024;-65
2021/10/14 09:06:16;;;;;;;10.45;5.72;;;10.60;99.90;;;;;;5070582;28;20103;-65
2021/10/14 09:08:49;;;;;;;10.80;6.57;;;10.50;99.90;;;;;;5068772;28;20411;-65
2021/10/14 09:11:28;;;;;;;11.00;7.07;;;10.50;99.90;;;;;;5069650;28;20041;-64
2021/10/14 09:13:57;;;;;;;12.15;6.65;;;10.70;99.90;;;;;;5070267;28;20052;-65
2021/10/14 09:16:28;;;;;;;13.35;5.88;;;10.70;99.90;;;;;;5070734;28;20165;-65
2021/10/14 09:18:56;;;;;;;13.70;6.55;;;10.70;99.90;;;;;;5069949;28;20025;-65
2021/10/14 09:21:30;;;;;;;12.57;7.47;;;10.80;99.90;;;;;;5070416;28;20029;-65
2021/10/14 09:24:00;;;;;;;9.43;5.85;;;10.80;99.90;;;;;;5070594;28;20189;-64
2021/10/14 09:26:32;;;;;;;9.93;7.63;;;10.90;99.90;;;;;;5070074;28;20187;-64
2021/10/14 09:29:10;;;;;;;;;;;10.90;99.90;;;;;;5070870;28;20115;-64
2021/10/14 09:31:52;;;;;;;7.78;6.50;;;10.90;99.90;;;;;;5068353;28;20033;-64
2021/10/14 09:34:46;;;;;;;9.57;6.18;;;10.90;99.90;;;;;;5070136;28;20104;-65
2021/10/14 09:37:17;;;;;;;17.42;6.55;;;10.90;99.90;;;;;;5068787;28;20141;-64
2021/10/14 09:39:58;;;;;;;11.10;6.22;;;11.10;99.90;;;;;;5070290;28;20116;-65
2021/10/14 09:42:57;;;;;;;10.18;6.20;;;11.00;99.90;;;;;;5069139;28;20132;-64
2021/10/14 09:45:25;;;;;;;11.70;7.00;;;11.00;99.90;;;;;;5069113;28;20052;-65
2021/10/14 09:48:03;;;;;;;14.25;6.28;;;10.90;99.90;;;;;;5069867;28;20033;-64
2021/10/14 09:50:30;;;;;;;12.98;6.38;;;10.90;99.90;;;;;;5068830;28;20133;-67
2021/10/14 09:52:58;;;;;;;10.65;6.05;;;10.90;99.90;;;;;;5069869;28;20025;-65
2021/10/14 09:55:24;;;;;;;12.02;5.95;;;10.90;99.90;;;;;;5070288;28;20025;-65
2021/10/14 09:57:50;;;;;;;16.00;6.40;;;10.90;99.90;;;;;;5051397;28;20366;-64
2021/10/14 10:00:18;;;;;;;10.45;5.82;;;10.90;99.90;;;;;;5070135;28;20021;-64
2021/10/14 10:02:44;;;;;;;9.68;6.72;;;10.90;99.90;;;;;;5068494;28;20510;-64
2021/10/14 10:05:11;;;;;;;12.45;6.35;;;11.00;99.90;;;;;;5068456;28;20116;-65
2021/10/14 10:07:43;;;;;;;10.45;6.13;;;11.10;99.90;;;;;;5068428;28;20033;-65
2021/10/14 10:10:14;;;;;;;8.38;6.70;;;11.10;99.90;;;;;;5070298;28;20036;-65
2021/10/14 10:12:40;;;;;;;12.60;6.10;;;11.20;99.90;;;;;;5068982;28;20047;-64
2021/10/14 10:15:06;;;;;;;12.65;7.38;;;11.10;99.90;;;;;;5070030;28;20037;-65
2021/10/14 10:17:41;;;;;;;11.30;5.90;;;11.10;99.90;;;;;;5070033;28;20166;-64
2021/10/14 10:20:09;;;;;;;12.57;6.68;;;11.30;99.90;;;;;;5069710;28;20107;-66
2021/10/14 10:22:35;;;;;;;9.10;6.25;;;11.20;99.90;;;;;;5068015;28;20095;-71
2021/10/14 10:25:17;;;;;;;10.30;5.68;;;11.30;99.90;;;;;;5069947;28;20078;-64
2021/10/14 10:27:43;;;;;;;15.13;6.03;;;11.30;99.90;;;;;;5069365;28;20025;-64
2021/10/14 10:30:09;;;;;;;16.90;6.03;;;11.30;99.90;;;;;;5068721;28;20414;-65
2021/10/14 10:32:46;;;;;;;7.38;5.75;;;11.30;99.90;;;;;;5069908;28;20024;-65
2021/10/14 10:35:39;;;;;;;8.35;5.40;;;11.40;99.90;;;;;;5070124;28;20039;-65
2021/10/14 10:38:23;;;;;;;7.70;6.10;;;11.40;99.90;;;;;;5068720;28;20464;-64
2021/10/14 10:40:50;;;;;;;10.13;6.63;;;11.40;99.90;;;;;;5069333;28;20017;-64
2021/10/14 10:43:22;;;;;;;13.02;6.53;;;11.40;99.90;;;;;;5069843;28;20033;-66
2021/10/14 10:45:49;;;;;;;7.72;5.88;;;11.50;99.90;;;;;;5069289;28;20025;-65
2021/10/14 10:48:19;;;;;;;17.08;6.55;;;11.40;99.90;;;;;;5072045;28;20036;-65
2021/10/14 10:50:48;;;;;;;9.00;5.97;;;11.50;99.90;;;;;;5072269;28;20032;-64
2021/10/14 10:53:37;;;;;;;9.82;6.05;;;11.60;99.90;;;;;;5071357;28;20039;-65
2021/10/14 10:56:03;;;;;;;12.32;6.90;;;11.50;99.90;;;;;;5073478;28;20040;-65
2021/10/14 10:58:32;;;;;;;9.75;6.53;;;11.60;99.90;;;;;;5071784;28;20426;-65
2021/10/14 11:00:59;;;;;;;12.05;5.97;;;11.60;99.90;;;;;;5070970;28;20047;-65
2021/10/14 11:03:28;;;;;;;16.05;6.20;;;11.40;99.90;;;;;;5073220;28;20021;-65
2021/10/14 11:05:56;;;;;;;8.52;5.82;;;11.40;99.90;;;;;;5071240;28;20024;-65
2021/10/14 11:08:30;;;;;;;13.23;6.00;;;11.50;99.90;;;;;;5071673;28;20432;-65
2021/10/14 11:11:02;;;;;;;12.00;6.47;;;11.50;99.90;;;;;;5072803;28;20033;-64
2021/10/14 11:13:34;;;;;;;10.63;6.47;;;11.60;99.90;;;;;;5072786;28;20485;-65
2021/10/14 11:16:02;;;;;;;13.75;6.78;;;11.60;99.90;;;;;;5070961;28;20028;-64
2021/10/14 11:18:28;;;;;;;11.93;6.28;;;11.70;99.90;;;;;;5072916;28;20056;-65
2021/10/14 11:20:58;;;;;;;10.25;5.55;;;11.70;99.90;;;;;;5071833;28;20029;-65
2021/10/14 11:23:26;;;;;;;12.93;5.85;;;11.80;99.90;;;;;;5070856;28;20112;-65
2021/10/14 11:26:13;;;;;;;11.30;5.65;;;11.90;99.90;;;;;;5070309;28;20139;-65
2021/10/14 11:28:58;;;;;;;13.30;5.90;;;11.80;99.90;;;;;;5072294;28;20162;-71
2021/10/14 11:31:25;;;;;;;12.85;6.70;;;11.80;99.90;;;;;;5070873;28;20384;-65
2021/10/14 11:33:52;;;;;;;10.68;5.72;;;11.90;99.90;;;;;;5070583;28;20043;-65
2021/10/14 11:36:22;;;;;;;11.52;7.15;;;11.90;99.90;;;;;;5072283;28;20090;-64
2021/10/14 11:39:18;;;;;;;9.77;5.70;;;12.00;99.90;;;;;;5071571;28;20024;-64
2021/10/14 11:41:44;;;;;;;16.40;6.35;;;12.10;99.90;;;;;;5062964;28;20063;-65
2021/10/14 11:44:11;;;;;;;10.30;5.53;;;12.10;99.90;;;;;;5073053;28;20025;-66
2021/10/14 11:46:40;;;;;;;11.50;5.20;;;12.10;99.90;;;;;;5072495;28;20060;-65
2021/10/14 11:49:08;;;;;;;11.85;6.05;;;12.20;99.90;;;;;;5069809;28;20156;-64
2021/10/14 11:51:35;;;;;;;11.18;5.30;;;12.20;99.90;;;;;;5072890;28;20032;-66
2021/10/14 11:54:12;;;;;;;14.95;5.60;;;12.20;99.90;;;;;;5070083;28;20259;-65
2021/10/14 11:56:45;;;;;;;9.70;5.25;;;12.30;99.90;;;;;;5053320;28;20053;-66
2021/10/14 11:59:12;;;;;;;11.57;4.93;;;12.30;99.90;;;;;;5071332;28;20386;-65
2021/10/14 12:02:03;;;;;;;8.25;4.88;;;12.30;99.90;;;;;;5072351;28;20073;-66
2021/10/14 12:04:34;;;;;;;13.27;5.50;;;12.40;99.90;;;;;;5070284;28;20032;-65
2021/10/14 12:07:00;;;;;;;12.88;5.78;;;12.30;99.90;;;;;;5070078;28;20390;-65
2021/10/14 12:09:27;;;;;;;12.55;6.32;;;12.40;99.90;;;;;;5072124;28;20028;-64
2021/10/14 12:12:00;;;;;;;11.43;5.88;;;12.40;99.90;;;;;;5070124;28;20060;-66
2021/10/14 12:14:27;;;;;;;16.17;5.63;;;12.40;99.90;;;;;;5071736;28;20055;-64
2021/10/14 12:17:14;;;;;;;14.18;6.20;;;12.50;99.90;;;;;;5071179;28;20430;-67
2021/10/14 12:19:49;;;;;;;13.25;6.53;;;12.50;99.90;;;;;;5070449;28;20470;-66
2021/10/14 12:22:18;;;;;;;11.18;5.78;;;12.50;99.90;;;;;;5070690;28;20078;-65
2021/10/14 12:24:57;;;;;;;7.93;5.88;;;12.50;99.90;;;;;;5069563;28;20029;-66
2021/10/14 12:27:47;;;;;;;8.73;6.15;;;12.60;99.90;;;;;;5071714;28;20052;-65
2021/10/14 12:30:32;;;;;;;9.57;5.28;;;12.50;99.90;;;;;;5070207;28;20042;-66
2021/10/14 12:33:19;;;;;;;12.50;5.10;;;12.60;99.90;;;;;;5069434;28;20051;-65
2021/10/14 12:35:55;;;;;;;10.98;6.28;;;12.60;99.90;;;;;;5069053;28;20131;-65
2021/10/14 12:38:22;;;;;;;7.85;5.97;;;12.70;99.90;;;;;;5070240;28;20510;-65
2021/10/14 12:41:01;;;;;;;11.13;5.28;;;12.90;99.90;;;;;;5069089;28;20036;-65
2021/10/14 12:43:42;;;;;;;10.00;5.90;;;12.90;99.90;;;;;;5071202;28;20021;-65
2021/10/14 12:48:56;;;;;;;9.98;5.35;;;13.00;99.90;;;;;;5070739;28;20322;-65
2021/10/14 12:51:24;;;;;;;10.63;5.93;;;13.00;99.90;;;;;;5070592;28;20451;-65
2021/10/14 12:53:59;;;;;;;12.48;5.00;;;13.00;99.90;;;;;;5070315;28;20039;-66